sensor_id;sensor_type;location;lat;lon;timestamp;temperature;humidity
16995;DHT22;8614;48.522;9.206;2022-07-22T00:01:59;18.40;99.90
16995;DHT22;8614;48.522;9.206;2022-07-22T00:04:27;18.40;99.90
16995;DHT22;8614;48.522;9.206;2022-07-22T00:06:54;18.40;99.90
16995;DHT22;8614;48.522;9.206;2022-07-22T00:09:21;18.40;99.90
16995;DHT22;8614;48.522;9.206;2022-07-22T00:11:48;18.40;99.90
16995;DHT22;8614;48.522;9.206;2022-07-22T00:14:14;18.30;99.90
16995;DHT22;8614;48.522;9.206;2022-07-22T00:16:41;18.30;99.90
16995;DHT22;8614;48.522;9.206;2022-07-22T00:19:09;18.20;99.90
16995;DHT22;8614;48.522;9.206;2022-07-22T00:21:37;18.30;99.90
16995;DHT22;8614;48.522;9.206;2022-07-22T00:24:04;18.20;99.90
16995;DHT22;8614;48.522;9.206;2022-07-22T00:26:31;18.20;99.90
16995;DHT22;8614;48.522;9.206;2022-07-22T00:28:58;18.20;99.90
16995;DHT22;8614;48.522;9.206;2022-07-22T00:31:27;18.10;99.90
16995;DHT22;8614;48.522;9.206;2022-07-22T00:33:53;18.10;99.90
16995;DHT22;8614;48.522;9.206;2022-07-22T00:36:20;18.00;99.90
16995;DHT22;8614;48.522;9.206;2022-07-22T00:38:48;18.00;99.90
16995;DHT22;8614;48.522;9.206;2022-07-22T00:41:16;18.00;99.90
16995;DHT22;8614;48.522;9.206;2022-07-22T00:43:54;17.90;99.90
16995;DHT22;8614;48.522;9.206;2022-07-22T00:46:21;17.90;99.90
16995;DHT22;8614;48.522;9.206;2022-07-22T00:48:48;17.90;99.90
16995;DHT22;8614;48.522;9.206;2022-07-22T00:51:16;17.90;99.90
16995;DHT22;8614;48.522;9.206;2022-07-22T00:53:44;17.90;99.90
16995;DHT22;8614;48.522;9.206;2022-07-22T00:56:13;17.80;99.90
16995;DHT22;8614;48.522;9.206;2022-07-22T00:58:41;17.80;99.90
16995;DHT22;8614;48.522;9.206;2022-07-22T01:01:08;17.80;99.90
16995;DHT22;8614;48.522;9.206;2022-07-22T01:03:35;17.80;99.90
16995;DHT22;8614;48.522;9.206;2022-07-22T01:06:03;17.80;99.90
16995;DHT22;8614;48.522;9.206;2022-07-22T01:08:30;17.80;99.90
16995;DHT22;8614;48.522;9.206;2022-07-22T01:11:06;17.80;99.90
16995;DHT22;8614;48.522;9.206;2022-07-22T01:13:35;17.70;99.90
16995;DHT22;8614;48.522;9.206;2022-07-22T01:16:02;17.70;99.90
16995;DHT22;8614;48.522;9.206;2022-07-22T01:18:29;17.60;99.90
16995;DHT22;8614;48.522;9.206;2022-07-22T01:20:57;17.60;99.90
16995;DHT22;8614;48.522;9.206;2022-07-22T01:23:24;17.60;99.90
16995;DHT22;8614;48.522;9.206;2022-07-22T01:25:51;17.60;99.90
16995;DHT22;8614;48.522;9.206;2022-07-22T01:28:19;17.50;99.90
16995;DHT22;8614;48.522;9.206;2022-07-22T01:30:46;17.50;99.90
16995;DHT22;8614;48.522;9.206;2022-07-22T01:33:15;17.50;99.90
16995;DHT22;8614;48.522;9.206;2022-07-22T01:35:42;17.50;99.90
16995;DHT22;8614;48.522;9.206;2022-07-22T01:38:10;17.50;99.90
16995;DHT22;8614;48.522;9.206;2022-07-22T01:40:37;17.50;99.90
16995;DHT22;8614;48.522;9.206;2022-07-22T01:43:05;17.40;99.90
16995;DHT22;8614;48.522;9.206;2022-07-22T01:45:32;17.40;99.90
16995;DHT22;8614;48.522;9.206;2022-07-22T01:47:59;17.30;99.90
16995;DHT22;8614;48.522;9.206;2022-07-22T01:50:26;17.30;99.90
16995;DHT22;8614;48.522;9.206;2022-07-22T01:52:53;17.30;99.90
16995;DHT22;8614;48.522;9.206;2022-07-22T01:55:21;17.30;99.90
16995;DHT22;8614;48.522;9.206;2022-07-22T01:57:48;17.30;99.90
16995;DHT22;8614;48.522;9.206;2022-07-22T02:00:24;17.30;99.90
16995;DHT22;8614;48.522;9.206;2022-07-22T02:02:51;17.20;99.90
16995;DHT22;8614;48.522;9.206;2022-07-22T02:05:18;17.20;99.90
16995;DHT22;8614;48.522;9.206;2022-07-22T02:07:45;17.20;99.90
16995;DHT22;8614;48.522;9.206;2022-07-22T02:10:12;17.10;99.90
16995;DHT22;8614;48.522;9.206;2022-07-22T02:12:40;17.10;99.90
16995;DHT22;8614;48.522;9.206;2022-07-22T02:15:09;17.00;99.90
16995;DHT22;8614;48.522;9.206;2022-07-22T02:17:38;17.00;99.90
16995;DHT22;8614;48.522;9.206;2022-07-22T02:20:08;17.00;99.90
16995;DHT22;8614;48.522;9.206;2022-07-22T02:22:35;16.90;99.90
16995;DHT22;8614;48.522;9.206;2022-07-22T02:25:02;17.00;99.90
16995;DHT22;8614;48.522;9.206;2022-07-22T02:27:30;16.90;99.90
16995;DHT22;8614;48.522;9.206;2022-07-22T02:29:58;16.90;99.90
16995;DHT22;8614;48.522;9.206;2022-07-22T02:32:26;16.90;99.90
16995;DHT22;8614;48.522;9.206;2022-07-22T02:34:53;16.90;99.90
16995;DHT22;8614;48.522;9.206;2022-07-22T02:37:20;16.90;99.90
16995;DHT22;8614;48.522;9.206;2022-07-22T02:39:47;16.90;99.90
16995;DHT22;8614;48.522;9.206;2022-07-22T02:42:14;16.90;99.90
16995;DHT22;8614;48.522;9.206;2022-07-22T02:44:42;16.80;99.90
16995;DHT22;8614;48.522;9.206;2022-07-22T02:47:10;16.80;99.90
16995;DHT22;8614;48.522;9.206;2022-07-22T02:49:37;16.70;99.90
16995;DHT22;8614;48.522;9.206;2022-07-22T02:52:05;16.70;99.90
16995;DHT22;8614;48.522;9.206;2022-07-22T02:54:32;16.70;99.90
16995;DHT22;8614;48.522;9.206;2022-07-22T02:57:00;16.70;99.90
16995;DHT22;8614;48.522;9.206;2022-07-22T02:59:27;16.70;99.90
16995;DHT22;8614;48.522;9.206;2022-07-22T03:01:54;16.60;99.90
16995;DHT22;8614;48.522;9.206;2022-07-22T03:04:22;16.60;99.90
16995;DHT22;8614;48.522;9.206;2022-07-22T03:06:49;16.60;99.90
16995;DHT22;8614;48.522;9.206;2022-07-22T03:09:20;16.60;99.90
16995;DHT22;8614;48.522;9.206;2022-07-22T03:11:47;16.60;99.90
16995;DHT22;8614;48.522;9.206;2022-07-22T03:14:14;16.60;99.90
16995;DHT22;8614;48.522;9.206;2022-07-22T03:16:42;16.60;99.90
16995;DHT22;8614;48.522;9.206;2022-07-22T03:19:09;16.50;99.90
16995;DHT22;8614;48.522;9.206;2022-07-22T03:21:37;16.50;99.90
16995;DHT22;8614;48.522;9.206;2022-07-22T03:24:05;16.50;99.90
16995;DHT22;8614;48.522;9.206;2022-07-22T03:26:32;16.50;99.90
16995;DHT22;8614;48.522;9.206;2022-07-22T03:28:59;16.40;99.90
16995;DHT22;8614;48.522;9.206;2022-07-22T03:31:26;16.40;99.90
16995;DHT22;8614;48.522;9.206;2022-07-22T03:33:52;16.40;99.90
16995;DHT22;8614;48.522;9.206;2022-07-22T03:36:20;16.40;99.90
16995;DHT22;8614;48.522;9.206;2022-07-22T03:38:51;16.40;99.90
16995;DHT22;8614;48.522;9.206;2022-07-22T03:41:18;16.40;99.90
16995;DHT22;8614;48.522;9.206;2022-07-22T03:43:45;16.30;99.90
16995;DHT22;8614;48.522;9.206;2022-07-22T03:46:12;16.40;99.90
16995;DHT22;8614;48.522;9.206;2022-07-22T03:48:39;16.40;99.90
16995;DHT22;8614;48.522;9.206;2022-07-22T03:51:06;16.30;99.90
16995;DHT22;8614;48.522;9.206;2022-07-22T03:53:33;16.30;99.90
16995;DHT22;8614;48.522;9.206;2022-07-22T03:56:03;16.30;99.90
16995;DHT22;8614;48.522;9.206;2022-07-22T03:58:31;16.30;99.90
16995;DHT22;8614;48.522;9.206;2022-07-22T04:00:59;16.30;99.90
16995;DHT22;8614;48.522;9.206;2022-07-22T04:03:26;16.30;99.90
16995;DHT22;8614;48.522;9.206;2022-07-22T04:05:53;16.30;99.90
16995;DHT22;8614;48.522;9.206;2022-07-22T04:08:31;16.30;99.90
16995;DHT22;8614;48.522;9.206;2022-07-22T04:10:58;16.30;99.90
16995;DHT22;8614;48.522;9.206;2022-07-22T04:13:26;16.30;99.90
16995;DHT22;8614;48.522;9.206;2022-07-22T04:15:55;16.40;99.90
16995;DHT22;8614;48.522;9.206;2022-07-22T04:18:23;16.40;99.90
16995;DHT22;8614;48.522;9.206;2022-07-22T04:20:50;16.40;99.90
16995;DHT22;8614;48.522;9.206;2022-07-22T04:23:29;16.40;99.90
16995;DHT22;8614;48.522;9.206;2022-07-22T04:26:16;16.40;99.90
16995;DHT22;8614;48.522;9.206;2022-07-22T04:28:44;16.50;99.90
16995;DHT22;8614;48.522;9.206;2022-07-22T04:31:11;16.50;99.90
16995;DHT22;8614;48.522;9.206;2022-07-22T04:33:41;16.60;99.90
16995;DHT22;8614;48.522;9.206;2022-07-22T04:36:08;16.60;99.90
16995;DHT22;8614;48.522;9.206;2022-07-22T04:38:35;16.70;99.90
16995;DHT22;8614;48.522;9.206;2022-07-22T04:41:04;16.70;99.90
16995;DHT22;8614;48.522;9.206;2022-07-22T04:43:32;16.90;99.90
16995;DHT22;8614;48.522;9.206;2022-07-22T04:46:00;17.00;99.90
16995;DHT22;8614;48.522;9.206;2022-07-22T04:48:31;17.00;99.90
16995;DHT22;8614;48.522;9.206;2022-07-22T04:50:59;17.10;99.90
16995;DHT22;8614;48.522;9.206;2022-07-22T04:53:27;17.20;99.90
16995;DHT22;8614;48.522;9.206;2022-07-22T04:55:55;17.30;99.90
16995;DHT22;8614;48.522;9.206;2022-07-22T04:58:23;17.50;99.90
16995;DHT22;8614;48.522;9.206;2022-07-22T05:00:50;17.60;99.90
16995;DHT22;8614;48.522;9.206;2022-07-22T05:03:18;17.70;99.90
16995;DHT22;8614;48.522;9.206;2022-07-22T05:05:45;17.80;99.90
16995;DHT22;8614;48.522;9.206;2022-07-22T05:08:16;18.00;99.90
16995;DHT22;8614;48.522;9.206;2022-07-22T05:10:43;18.10;99.90
16995;DHT22;8614;48.522;9.206;2022-07-22T05:13:12;18.20;99.90
16995;DHT22;8614;48.522;9.206;2022-07-22T05:15:40;18.20;99.90
16995;DHT22;8614;48.522;9.206;2022-07-22T05:18:07;18.40;99.90
16995;DHT22;8614;48.522;9.206;2022-07-22T05:20:35;18.50;99.90
16995;DHT22;8614;48.522;9.206;2022-07-22T05:23:02;18.70;99.90
16995;DHT22;8614;48.522;9.206;2022-07-22T05:25:32;18.80;99.90
16995;DHT22;8614;48.522;9.206;2022-07-22T05:27:59;18.90;99.90
16995;DHT22;8614;48.522;9.206;2022-07-22T05:30:38;19.00;99.90
16995;DHT22;8614;48.522;9.206;2022-07-22T05:33:06;19.10;99.90
16995;DHT22;8614;48.522;9.206;2022-07-22T05:36:08;19.20;99.90
16995;DHT22;8614;48.522;9.206;2022-07-22T05:38:40;19.30;99.90
16995;DHT22;8614;48.522;9.206;2022-07-22T05:41:09;19.50;99.90
16995;DHT22;8614;48.522;9.206;2022-07-22T05:43:37;19.60;99.90
16995;DHT22;8614;48.522;9.206;2022-07-22T05:46:05;19.70;99.90
16995;DHT22;8614;48.522;9.206;2022-07-22T05:48:32;19.80;99.90
16995;DHT22;8614;48.522;9.206;2022-07-22T05:51:01;20.00;99.90
16995;DHT22;8614;48.522;9.206;2022-07-22T05:53:31;20.20;99.90
16995;DHT22;8614;48.522;9.206;2022-07-22T05:55:58;20.70;99.90
16995;DHT22;8614;48.522;9.206;2022-07-22T05:58:25;21.40;99.90
16995;DHT22;8614;48.522;9.206;2022-07-22T06:00:53;22.10;99.90
16995;DHT22;8614;48.522;9.206;2022-07-22T06:03:21;22.50;99.90
16995;DHT22;8614;48.522;9.206;2022-07-22T06:05:48;22.90;99.90
16995;DHT22;8614;48.522;9.206;2022-07-22T06:08:15;23.10;99.90
16995;DHT22;8614;48.522;9.206;2022-07-22T06:10:47;23.00;99.90
16995;DHT22;8614;48.522;9.206;2022-07-22T06:13:15;22.90;99.90
16995;DHT22;8614;48.522;9.206;2022-07-22T06:15:42;23.00;99.90
16995;DHT22;8614;48.522;9.206;2022-07-22T06:18:11;23.30;99.90
16995;DHT22;8614;48.522;9.206;2022-07-22T06:20:38;23.50;99.90
16995;DHT22;8614;48.522;9.206;2022-07-22T06:23:05;23.40;99.90
16995;DHT22;8614;48.522;9.206;2022-07-22T06:25:33;23.20;99.90
16995;DHT22;8614;48.522;9.206;2022-07-22T06:28:02;23.00;99.90
16995;DHT22;8614;48.522;9.206;2022-07-22T06:30:29;22.90;99.90
16995;DHT22;8614;48.522;9.206;2022-07-22T06:32:56;22.90;99.90
16995;DHT22;8614;48.522;9.206;2022-07-22T06:35:23;23.20;99.90
16995;DHT22;8614;48.522;9.206;2022-07-22T06:37:50;23.60;99.90
16995;DHT22;8614;48.522;9.206;2022-07-22T06:40:18;24.00;99.90
16995;DHT22;8614;48.522;9.206;2022-07-22T06:42:58;24.50;99.90
16995;DHT22;8614;48.522;9.206;2022-07-22T06:45:31;24.70;99.90
16995;DHT22;8614;48.522;9.206;2022-07-22T06:48:11;25.00;99.90
16995;DHT22;8614;48.522;9.206;2022-07-22T06:50:39;25.20;99.90
16995;DHT22;8614;48.522;9.206;2022-07-22T06:53:11;25.50;99.90
16995;DHT22;8614;48.522;9.206;2022-07-22T06:55:40;25.80;99.90
16995;DHT22;8614;48.522;9.206;2022-07-22T06:58:09;25.90;99.90
16995;DHT22;8614;48.522;9.206;2022-07-22T07:00:37;25.90;99.90
16995;DHT22;8614;48.522;9.206;2022-07-22T07:03:19;26.10;99.90
16995;DHT22;8614;48.522;9.206;2022-07-22T07:05:47;26.60;99.90
16995;DHT22;8614;48.522;9.206;2022-07-22T07:08:14;26.70;99.90
16995;DHT22;8614;48.522;9.206;2022-07-22T07:10:41;26.80;99.90
16995;DHT22;8614;48.522;9.206;2022-07-22T07:13:12;26.80;99.90
16995;DHT22;8614;48.522;9.206;2022-07-22T07:15:44;26.80;99.90
16995;DHT22;8614;48.522;9.206;2022-07-22T07:18:13;27.10;99.90
16995;DHT22;8614;48.522;9.206;2022-07-22T07:20:41;27.50;99.90
16995;DHT22;8614;48.522;9.206;2022-07-22T07:23:09;27.60;99.90
16995;DHT22;8614;48.522;9.206;2022-07-22T07:25:43;27.50;99.90
16995;DHT22;8614;48.522;9.206;2022-07-22T07:28:11;27.30;99.90
16995;DHT22;8614;48.522;9.206;2022-07-22T07:30:55;27.30;99.90
16995;DHT22;8614;48.522;9.206;2022-07-22T07:33:23;27.80;99.90
16995;DHT22;8614;48.522;9.206;2022-07-22T07:35:51;28.00;99.90
16995;DHT22;8614;48.522;9.206;2022-07-22T07:38:27;28.10;99.90
16995;DHT22;8614;48.522;9.206;2022-07-22T07:40:55;27.90;99.90
16995;DHT22;8614;48.522;9.206;2022-07-22T07:43:22;28.00;99.90
16995;DHT22;8614;48.522;9.206;2022-07-22T07:45:49;28.00;99.90
16995;DHT22;8614;48.522;9.206;2022-07-22T07:48:17;28.30;99.90
16995;DHT22;8614;48.522;9.206;2022-07-22T07:50:44;28.30;99.90
16995;DHT22;8614;48.522;9.206;2022-07-22T07:53:13;28.20;99.90
16995;DHT22;8614;48.522;9.206;2022-07-22T07:55:40;28.50;99.90
16995;DHT22;8614;48.522;9.206;2022-07-22T07:58:08;28.30;99.90
16995;DHT22;8614;48.522;9.206;2022-07-22T08:00:35;28.20;99.90
16995;DHT22;8614;48.522;9.206;2022-07-22T08:03:03;28.20;99.90
16995;DHT22;8614;48.522;9.206;2022-07-22T08:05:33;28.30;99.90
16995;DHT22;8614;48.522;9.206;2022-07-22T08:08:01;28.10;99.90
16995;DHT22;8614;48.522;9.206;2022-07-22T08:10:28;28.20;99.90
16995;DHT22;8614;48.522;9.206;2022-07-22T08:13:10;28.50;99.90
16995;DHT22;8614;48.522;9.206;2022-07-22T08:16:04;28.50;99.90
16995;DHT22;8614;48.522;9.206;2022-07-22T08:18:32;28.80;99.90
16995;DHT22;8614;48.522;9.206;2022-07-22T08:21:00;28.80;99.90
16995;DHT22;8614;48.522;9.206;2022-07-22T08:23:36;28.70;99.90
16995;DHT22;8614;48.522;9.206;2022-07-22T08:26:03;28.70;99.90
16995;DHT22;8614;48.522;9.206;2022-07-22T08:28:30;29.00;99.90
16995;DHT22;8614;48.522;9.206;2022-07-22T08:30:57;29.00;99.90
16995;DHT22;8614;48.522;9.206;2022-07-22T08:33:25;28.70;99.90
16995;DHT22;8614;48.522;9.206;2022-07-22T08:35:52;29.00;99.90
16995;DHT22;8614;48.522;9.206;2022-07-22T08:38:20;29.10;99.90
16995;DHT22;8614;48.522;9.206;2022-07-22T08:40:48;29.10;99.90
16995;DHT22;8614;48.522;9.206;2022-07-22T08:43:15;29.20;99.90
16995;DHT22;8614;48.522;9.206;2022-07-22T08:45:42;29.20;99.90
16995;DHT22;8614;48.522;9.206;2022-07-22T08:48:09;29.20;99.90
16995;DHT22;8614;48.522;9.206;2022-07-22T08:50:47;29.50;99.90
16995;DHT22;8614;48.522;9.206;2022-07-22T08:53:25;29.90;99.90
16995;DHT22;8614;48.522;9.206;2022-07-22T08:55:56;30.30;99.90
16995;DHT22;8614;48.522;9.206;2022-07-22T08:58:24;30.10;99.90
16995;DHT22;8614;48.522;9.206;2022-07-22T09:01:04;29.90;99.90
16995;DHT22;8614;48.522;9.206;2022-07-22T09:03:31;30.00;99.90
16995;DHT22;8614;48.522;9.206;2022-07-22T09:06:00;30.30;99.90
16995;DHT22;8614;48.522;9.206;2022-07-22T09:08:28;30.50;99.90
16995;DHT22;8614;48.522;9.206;2022-07-22T09:11:01;30.40;99.90
16995;DHT22;8614;48.522;9.206;2022-07-22T09:14:00;30.70;99.90
16995;DHT22;8614;48.522;9.206;2022-07-22T09:16:43;31.10;99.90
16995;DHT22;8614;48.522;9.206;2022-07-22T09:19:31;31.00;99.90
16995;DHT22;8614;48.522;9.206;2022-07-22T09:22:33;31.00;99.90
16995;DHT22;8614;48.522;9.206;2022-07-22T09:25:21;30.70;99.90
16995;DHT22;8614;48.522;9.206;2022-07-22T09:28:13;30.40;99.90
16995;DHT22;8614;48.522;9.206;2022-07-22T09:30:59;30.50;99.90
16995;DHT22;8614;48.522;9.206;2022-07-22T09:33:34;30.60;99.90
16995;DHT22;8614;48.522;9.206;2022-07-22T09:36:17;31.00;99.90
16995;DHT22;8614;48.522;9.206;2022-07-22T09:38:44;31.20;99.90
16995;DHT22;8614;48.522;9.206;2022-07-22T09:41:13;31.10;99.90
16995;DHT22;8614;48.522;9.206;2022-07-22T09:43:41;30.70;99.90
16995;DHT22;8614;48.522;9.206;2022-07-22T09:46:08;30.90;99.90
16995;DHT22;8614;48.522;9.206;2022-07-22T09:49:08;31.00;99.90
16995;DHT22;8614;48.522;9.206;2022-07-22T09:51:45;31.30;99.90
16995;DHT22;8614;48.522;9.206;2022-07-22T09:54:18;31.50;99.90
16995;DHT22;8614;48.522;9.206;2022-07-22T09:56:47;31.70;99.90
16995;DHT22;8614;48.522;9.206;2022-07-22T09:59:16;31.70;99.90
16995;DHT22;8614;48.522;9.206;2022-07-22T10:02:03;31.70;99.90
16995;DHT22;8614;48.522;9.206;2022-07-22T10:04:33;31.40;99.90
16995;DHT22;8614;48.522;9.206;2022-07-22T10:07:02;31.50;99.90
16995;DHT22;8614;48.522;9.206;2022-07-22T10:09:35;31.50;99.90
16995;DHT22;8614;48.522;9.206;2022-07-22T10:12:06;31.50;99.90
16995;DHT22;8614;48.522;9.206;2022-07-22T10:14:34;31.10;99.90
16995;DHT22;8614;48.522;9.206;2022-07-22T10:17:03;31.20;99.90
16995;DHT22;8614;48.522;9.206;2022-07-22T10:19:30;31.40;99.90
16995;DHT22;8614;48.522;9.206;2022-07-22T10:21:56;31.20;99.90
16995;DHT22;8614;48.522;9.206;2022-07-22T10:24:23;31.30;99.90
16995;DHT22;8614;48.522;9.206;2022-07-22T10:26:57;30.80;99.90
16995;DHT22;8614;48.522;9.206;2022-07-22T10:29:28;30.90;99.90
16995;DHT22;8614;48.522;9.206;2022-07-22T10:32:23;31.10;99.90
16995;DHT22;8614;48.522;9.206;2022-07-22T10:35:20;30.90;99.90
16995;DHT22;8614;48.522;9.206;2022-07-22T10:37:49;31.10;99.90
16995;DHT22;8614;48.522;9.206;2022-07-22T10:40:17;30.60;99.90
16995;DHT22;8614;48.522;9.206;2022-07-22T10:43:12;30.40;99.90
16995;DHT22;8614;48.522;9.206;2022-07-22T10:45:44;30.40;99.90
16995;DHT22;8614;48.522;9.206;2022-07-22T10:48:13;30.40;99.90
16995;DHT22;8614;48.522;9.206;2022-07-22T10:50:43;30.50;99.90
16995;DHT22;8614;48.522;9.206;2022-07-22T10:53:11;30.20;99.90
16995;DHT22;8614;48.522;9.206;2022-07-22T10:55:56;30.40;99.90
16995;DHT22;8614;48.522;9.206;2022-07-22T10:58:48;30.60;99.90
16995;DHT22;8614;48.522;9.206;2022-07-22T11:01:20;30.50;99.90
16995;DHT22;8614;48.522;9.206;2022-07-22T11:03:48;30.20;99.90
16995;DHT22;8614;48.522;9.206;2022-07-22T11:06:21;30.10;99.90
16995;DHT22;8614;48.522;9.206;2022-07-22T11:08:51;30.00;99.90
16995;DHT22;8614;48.522;9.206;2022-07-22T11:11:18;29.80;99.90
16995;DHT22;8614;48.522;9.206;2022-07-22T11:13:57;29.60;99.90
16995;DHT22;8614;48.522;9.206;2022-07-22T11:16:26;29.60;99.90
16995;DHT22;8614;48.522;9.206;2022-07-22T11:18:56;29.60;99.90
16995;DHT22;8614;48.522;9.206;2022-07-22T11:21:25;29.70;99.90
16995;DHT22;8614;48.522;9.206;2022-07-22T11:23:53;29.60;99.90
16995;DHT22;8614;48.522;9.206;2022-07-22T11:26:33;29.70;99.90
16995;DHT22;8614;48.522;9.206;2022-07-22T11:29:00;29.70;99.90
16995;DHT22;8614;48.522;9.206;2022-07-22T11:31:29;29.70;99.90
16995;DHT22;8614;48.522;9.206;2022-07-22T11:34:05;29.50;99.90
16995;DHT22;8614;48.522;9.206;2022-07-22T11:36:33;29.50;99.90
16995;DHT22;8614;48.522;9.206;2022-07-22T11:39:00;29.50;99.90
16995;DHT22;8614;48.522;9.206;2022-07-22T11:41:29;29.50;99.90
16995;DHT22;8614;48.522;9.206;2022-07-22T11:43:56;29.30;99.90
16995;DHT22;8614;48.522;9.206;2022-07-22T11:46:23;29.30;99.90
16995;DHT22;8614;48.522;9.206;2022-07-22T11:48:53;29.40;99.90
16995;DHT22;8614;48.522;9.206;2022-07-22T11:51:27;29.40;99.90
16995;DHT22;8614;48.522;9.206;2022-07-22T11:53:54;29.70;99.90
16995;DHT22;8614;48.522;9.206;2022-07-22T11:56:21;29.70;99.90
16995;DHT22;8614;48.522;9.206;2022-07-22T11:58:49;29.60;99.90
16995;DHT22;8614;48.522;9.206;2022-07-22T12:01:20;29.70;99.90
16995;DHT22;8614;48.522;9.206;2022-07-22T12:03:49;29.80;99.90
16995;DHT22;8614;48.522;9.206;2022-07-22T12:06:18;29.70;99.90
16995;DHT22;8614;48.522;9.206;2022-07-22T12:08:47;29.60;99.90
16995;DHT22;8614;48.522;9.206;2022-07-22T12:11:16;29.70;99.90
16995;DHT22;8614;48.522;9.206;2022-07-22T12:13:44;29.80;99.90
16995;DHT22;8614;48.522;9.206;2022-07-22T12:16:33;29.70;99.90
16995;DHT22;8614;48.522;9.206;2022-07-22T12:19:04;29.60;99.90
16995;DHT22;8614;48.522;9.206;2022-07-22T12:21:35;29.60;99.90
16995;DHT22;8614;48.522;9.206;2022-07-22T12:24:04;29.50;99.90
16995;DHT22;8614;48.522;9.206;2022-07-22T12:26:43;29.60;99.90
16995;DHT22;8614;48.522;9.206;2022-07-22T12:29:18;29.60;99.90
16995;DHT22;8614;48.522;9.206;2022-07-22T12:31:46;29.60;99.90
16995;DHT22;8614;48.522;9.206;2022-07-22T12:34:13;29.70;99.90
16995;DHT22;8614;48.522;9.206;2022-07-22T12:36:45;29.50;99.90
16995;DHT22;8614;48.522;9.206;2022-07-22T12:39:16;29.40;99.90
16995;DHT22;8614;48.522;9.206;2022-07-22T12:41:50;29.40;99.90
16995;DHT22;8614;48.522;9.206;2022-07-22T12:44:22;29.30;99.90
16995;DHT22;8614;48.522;9.206;2022-07-22T12:46:50;29.40;99.90
16995;DHT22;8614;48.522;9.206;2022-07-22T12:49:20;29.40;99.90
16995;DHT22;8614;48.522;9.206;2022-07-22T12:52:07;29.40;99.90
16995;DHT22;8614;48.522;9.206;2022-07-22T12:54:35;29.50;99.90
16995;DHT22;8614;48.522;9.206;2022-07-22T12:57:03;29.70;99.90
16995;DHT22;8614;48.522;9.206;2022-07-22T12:59:30;29.80;99.90
16995;DHT22;8614;48.522;9.206;2022-07-22T13:01:57;29.70;99.90
16995;DHT22;8614;48.522;9.206;2022-07-22T13:04:23;29.70;99.90
16995;DHT22;8614;48.522;9.206;2022-07-22T13:06:50;29.80;99.90
16995;DHT22;8614;48.522;9.206;2022-07-22T13:09:19;29.80;99.90
16995;DHT22;8614;48.522;9.206;2022-07-22T13:11:45;29.80;99.90
16995;DHT22;8614;48.522;9.206;2022-07-22T13:14:13;29.80;99.90
16995;DHT22;8614;48.522;9.206;2022-07-22T13:16:41;29.90;99.90
16995;DHT22;8614;48.522;9.206;2022-07-22T13:19:07;30.00;99.90
16995;DHT22;8614;48.522;9.206;2022-07-22T13:21:34;30.10;99.90
16995;DHT22;8614;48.522;9.206;2022-07-22T13:24:01;30.10;99.90
16995;DHT22;8614;48.522;9.206;2022-07-22T13:26:29;30.10;99.90
16995;DHT22;8614;48.522;9.206;2022-07-22T13:28:56;30.20;99.90
16995;DHT22;8614;48.522;9.206;2022-07-22T13:31:23;30.20;99.90
16995;DHT22;8614;48.522;9.206;2022-07-22T13:33:49;30.20;99.90
16995;DHT22;8614;48.522;9.206;2022-07-22T13:36:16;30.20;99.90
16995;DHT22;8614;48.522;9.206;2022-07-22T13:38:43;30.10;99.90
16995;DHT22;8614;48.522;9.206;2022-07-22T13:41:10;30.10;99.90
16995;DHT22;8614;48.522;9.206;2022-07-22T13:43:44;30.10;99.90
16995;DHT22;8614;48.522;9.206;2022-07-22T13:46:12;30.10;99.90
16995;DHT22;8614;48.522;9.206;2022-07-22T13:48:38;30.10;99.90
16995;DHT22;8614;48.522;9.206;2022-07-22T13:51:05;30.10;99.90
16995;DHT22;8614;48.522;9.206;2022-07-22T13:53:33;30.10;99.90
16995;DHT22;8614;48.522;9.206;2022-07-22T13:56:00;30.20;99.90
16995;DHT22;8614;48.522;9.206;2022-07-22T13:58:27;30.20;99.90
16995;DHT22;8614;48.522;9.206;2022-07-22T14:00:55;30.20;99.90
16995;DHT22;8614;48.522;9.206;2022-07-22T14:03:22;30.20;99.70
16995;DHT22;8614;48.522;9.206;2022-07-22T14:05:49;30.10;99.80
16995;DHT22;8614;48.522;9.206;2022-07-22T14:08:16;30.10;99.90
16995;DHT22;8614;48.522;9.206;2022-07-22T14:10:43;30.10;99.80
16995;DHT22;8614;48.522;9.206;2022-07-22T14:13:09;30.20;99.90
16995;DHT22;8614;48.522;9.206;2022-07-22T14:15:36;30.00;99.20
16995;DHT22;8614;48.522;9.206;2022-07-22T14:18:05;30.10;99.80
16995;DHT22;8614;48.522;9.206;2022-07-22T14:20:33;30.20;99.80
16995;DHT22;8614;48.522;9.206;2022-07-22T14:23:01;30.30;99.80
16995;DHT22;8614;48.522;9.206;2022-07-22T14:25:29;30.20;98.80
16995;DHT22;8614;48.522;9.206;2022-07-22T14:27:55;30.20;98.80
16995;DHT22;8614;48.522;9.206;2022-07-22T14:30:22;30.20;99.10
16995;DHT22;8614;48.522;9.206;2022-07-22T14:32:49;30.20;98.60
16995;DHT22;8614;48.522;9.206;2022-07-22T14:35:18;30.20;98.90
16995;DHT22;8614;48.522;9.206;2022-07-22T14:37:44;30.20;99.20
16995;DHT22;8614;48.522;9.206;2022-07-22T14:40:12;30.20;98.80
16995;DHT22;8614;48.522;9.206;2022-07-22T14:42:39;30.30;99.20
16995;DHT22;8614;48.522;9.206;2022-07-22T14:45:08;30.30;99.20
16995;DHT22;8614;48.522;9.206;2022-07-22T14:47:35;30.30;99.50
16995;DHT22;8614;48.522;9.206;2022-07-22T14:50:03;30.20;98.10
16995;DHT22;8614;48.522;9.206;2022-07-22T14:52:31;30.20;98.70
16995;DHT22;8614;48.522;9.206;2022-07-22T14:54:58;30.20;98.40
16995;DHT22;8614;48.522;9.206;2022-07-22T14:57:25;30.20;97.60
16995;DHT22;8614;48.522;9.206;2022-07-22T14:59:52;30.20;97.70
16995;DHT22;8614;48.522;9.206;2022-07-22T15:02:20;30.20;97.90
16995;DHT22;8614;48.522;9.206;2022-07-22T15:04:47;30.20;98.10
16995;DHT22;8614;48.522;9.206;2022-07-22T15:07:13;30.00;97.90
16995;DHT22;8614;48.522;9.206;2022-07-22T15:09:41;30.00;98.30
16995;DHT22;8614;48.522;9.206;2022-07-22T15:12:08;30.10;98.20
16995;DHT22;8614;48.522;9.206;2022-07-22T15:14:35;30.20;98.60
16995;DHT22;8614;48.522;9.206;2022-07-22T15:17:02;30.20;98.10
16995;DHT22;8614;48.522;9.206;2022-07-22T15:19:29;30.20;98.00
16995;DHT22;8614;48.522;9.206;2022-07-22T15:21:56;30.30;98.20
16995;DHT22;8614;48.522;9.206;2022-07-22T15:24:23;30.20;98.70
16995;DHT22;8614;48.522;9.206;2022-07-22T15:26:51;30.30;98.50
16995;DHT22;8614;48.522;9.206;2022-07-22T15:29:18;30.30;98.20
16995;DHT22;8614;48.522;9.206;2022-07-22T15:31:44;30.30;98.20
16995;DHT22;8614;48.522;9.206;2022-07-22T15:34:11;30.30;97.90
16995;DHT22;8614;48.522;9.206;2022-07-22T15:36:38;30.30;97.80
16995;DHT22;8614;48.522;9.206;2022-07-22T15:39:05;30.30;97.90
16995;DHT22;8614;48.522;9.206;2022-07-22T15:41:32;30.20;97.90
16995;DHT22;8614;48.522;9.206;2022-07-22T15:44:03;30.20;98.00
16995;DHT22;8614;48.522;9.206;2022-07-22T15:46:30;30.20;98.20
16995;DHT22;8614;48.522;9.206;2022-07-22T15:48:56;30.30;98.00
16995;DHT22;8614;48.522;9.206;2022-07-22T15:51:24;30.30;97.50
16995;DHT22;8614;48.522;9.206;2022-07-22T15:53:51;30.30;98.10
16995;DHT22;8614;48.522;9.206;2022-07-22T15:56:18;30.20;97.60
16995;DHT22;8614;48.522;9.206;2022-07-22T15:58:45;30.30;98.30
16995;DHT22;8614;48.522;9.206;2022-07-22T16:01:30;30.30;98.10